sensor_id;sensor_type;location;lat;lon;timestamp;P1;durP1;ratioP1;P2;durP2;ratioP2
62523;SDS011;53689;56.878;60.672;2022-07-03T00:01:27;21.20;;;12.15;;
62523;SDS011;53689;56.878;60.672;2022-07-03T00:03:54;21.38;;;12.15;;
62523;SDS011;53689;56.878;60.672;2022-07-03T00:06:22;21.77;;;12.43;;
62523;SDS011;53689;56.878;60.672;2022-07-03T00:08:49;20.73;;;12.60;;
62523;SDS011;53689;56.878;60.672;2022-07-03T00:11:17;25.40;;;15.27;;
62523;SDS011;53689;56.878;60.672;2022-07-03T00:13:45;29.05;;;21.00;;
62523;SDS011;53689;56.878;60.672;2022-07-03T00:16:12;25.33;;;17.10;;
62523;SDS011;53689;56.878;60.672;2022-07-03T00:18:41;23.83;;;14.88;;
62523;SDS011;53689;56.878;60.672;2022-07-03T00:21:09;19.97;;;13.37;;
62523;SDS011;53689;56.878;60.672;2022-07-03T00:23:39;21.38;;;13.00;;
62523;SDS011;53689;56.878;60.672;2022-07-03T00:26:09;22.50;;;14.05;;
62523;SDS011;53689;56.878;60.672;2022-07-03T00:28:39;21.60;;;14.02;;
62523;SDS011;53689;56.878;60.672;2022-07-03T00:31:08;22.67;;;13.85;;
62523;SDS011;53689;56.878;60.672;2022-07-03T00:33:38;24.95;;;14.07;;
62523;SDS011;53689;56.878;60.672;2022-07-03T00:36:07;22.25;;;14.13;;
62523;SDS011;53689;56.878;60.672;2022-07-03T00:38:34;23.08;;;13.57;;
62523;SDS011;53689;56.878;60.672;2022-07-03T00:41:02;22.88;;;13.43;;
62523;SDS011;53689;56.878;60.672;2022-07-03T00:43:29;22.70;;;12.75;;
62523;SDS011;53689;56.878;60.672;2022-07-03T00:46:03;19.38;;;12.95;;
62523;SDS011;53689;56.878;60.672;2022-07-03T00:48:36;23.95;;;12.82;;
62523;SDS011;53689;56.878;60.672;2022-07-03T00:51:04;19.45;;;12.75;;
62523;SDS011;53689;56.878;60.672;2022-07-03T00:53:40;18.77;;;12.82;;
62523;SDS011;53689;56.878;60.672;2022-07-03T00:56:09;21.35;;;12.38;;
62523;SDS011;53689;56.878;60.672;2022-07-03T00:58:40;19.88;;;12.95;;
62523;SDS011;53689;56.878;60.672;2022-07-03T01:01:08;21.40;;;12.32;;
62523;SDS011;53689;56.878;60.672;2022-07-03T01:03:39;19.55;;;12.60;;
62523;SDS011;53689;56.878;60.672;2022-07-03T01:06:13;20.73;;;12.40;;
62523;SDS011;53689;56.878;60.672;2022-07-03T01:08:42;19.58;;;12.45;;
62523;SDS011;53689;56.878;60.672;2022-07-03T01:11:14;21.23;;;12.57;;
62523;SDS011;53689;56.878;60.672;2022-07-03T01:13:51;16.17;;;11.70;;
62523;SDS011;53689;56.878;60.672;2022-07-03T01:16:31;16.90;;;11.73;;
62523;SDS011;53689;56.878;60.672;2022-07-03T01:19:08;18.85;;;12.20;;
62523;SDS011;53689;56.878;60.672;2022-07-03T01:21:53;19.52;;;12.38;;
62523;SDS011;53689;56.878;60.672;2022-07-03T01:27:18;21.20;;;14.40;;
62523;SDS011;53689;56.878;60.672;2022-07-03T01:29:56;26.85;;;19.80;;
62523;SDS011;53689;56.878;60.672;2022-07-03T01:32:32;24.98;;;16.23;;
62523;SDS011;53689;56.878;60.672;2022-07-03T01:35:05;23.27;;;14.38;;
62523;SDS011;53689;56.878;60.672;2022-07-03T01:40:02;25.85;;;13.82;;
62523;SDS011;53689;56.878;60.672;2022-07-03T01:42:34;22.45;;;14.27;;
62523;SDS011;53689;56.878;60.672;2022-07-03T01:45:03;24.05;;;14.13;;
62523;SDS011;53689;56.878;60.672;2022-07-03T01:47:32;28.95;;;14.18;;
62523;SDS011;53689;56.878;60.672;2022-07-03T01:50:01;28.10;;;14.38;;
62523;SDS011;53689;56.878;60.672;2022-07-03T01:52:30;25.25;;;13.68;;
62523;SDS011;53689;56.878;60.672;2022-07-03T01:55:13;24.33;;;13.05;;
62523;SDS011;53689;56.878;60.672;2022-07-03T01:57:44;23.10;;;12.55;;
62523;SDS011;53689;56.878;60.672;2022-07-03T02:00:14;21.00;;;11.65;;
62523;SDS011;53689;56.878;60.672;2022-07-03T02:02:43;21.13;;;11.30;;
62523;SDS011;53689;56.878;60.672;2022-07-03T02:05:19;20.75;;;10.82;;
62523;SDS011;53689;56.878;60.672;2022-07-03T02:07:56;18.17;;;10.35;;
62523;SDS011;53689;56.878;60.672;2022-07-03T02:10:34;18.45;;;10.55;;
62523;SDS011;53689;56.878;60.672;2022-07-03T02:13:08;16.35;;;10.40;;
62523;SDS011;53689;56.878;60.672;2022-07-03T02:15:43;15.38;;;10.25;;
62523;SDS011;53689;56.878;60.672;2022-07-03T02:18:25;14.02;;;10.23;;
62523;SDS011;53689;56.878;60.672;2022-07-03T02:21:04;18.23;;;10.18;;
62523;SDS011;53689;56.878;60.672;2022-07-03T02:23:39;16.33;;;9.77;;
62523;SDS011;53689;56.878;60.672;2022-07-03T02:26:16;15.23;;;9.88;;
62523;SDS011;53689;56.878;60.672;2022-07-03T02:28:54;17.13;;;9.45;;
62523;SDS011;53689;56.878;60.672;2022-07-03T02:31:26;13.88;;;9.13;;
62523;SDS011;53689;56.878;60.672;2022-07-03T02:33:56;16.83;;;9.85;;
62523;SDS011;53689;56.878;60.672;2022-07-03T02:36:27;13.98;;;8.35;;
62523;SDS011;53689;56.878;60.672;2022-07-03T02:41:23;13.25;;;8.52;;
62523;SDS011;53689;56.878;60.672;2022-07-03T02:43:57;12.60;;;8.40;;
62523;SDS011;53689;56.878;60.672;2022-07-03T02:46:31;15.77;;;8.18;;
62523;SDS011;53689;56.878;60.672;2022-07-03T02:49:09;12.90;;;8.25;;
62523;SDS011;53689;56.878;60.672;2022-07-03T02:51:44;15.40;;;8.40;;
62523;SDS011;53689;56.878;60.672;2022-07-03T02:54:17;13.23;;;7.72;;
62523;SDS011;53689;56.878;60.672;2022-07-03T02:56:47;11.30;;;7.35;;
62523;SDS011;53689;56.878;60.672;2022-07-03T02:59:30;12.43;;;7.35;;
62523;SDS011;53689;56.878;60.672;2022-07-03T03:02:07;10.88;;;6.35;;
62523;SDS011;53689;56.878;60.672;2022-07-03T03:04:48;12.18;;;7.05;;
62523;SDS011;53689;56.878;60.672;2022-07-03T03:07:20;12.45;;;6.50;;
62523;SDS011;53689;56.878;60.672;2022-07-03T03:09:53;10.05;;;6.90;;
62523;SDS011;53689;56.878;60.672;2022-07-03T03:12:21;9.45;;;6.38;;
62523;SDS011;53689;56.878;60.672;2022-07-03T03:15:00;8.90;;;6.50;;
62523;SDS011;53689;56.878;60.672;2022-07-03T03:17:33;9.02;;;6.38;;
62523;SDS011;53689;56.878;60.672;2022-07-03T03:20:06;8.95;;;6.03;;
62523;SDS011;53689;56.878;60.672;2022-07-03T03:22:39;11.23;;;6.68;;
62523;SDS011;53689;56.878;60.672;2022-07-03T03:25:19;11.15;;;6.40;;
62523;SDS011;53689;56.878;60.672;2022-07-03T03:27:47;8.52;;;5.38;;
62523;SDS011;53689;56.878;60.672;2022-07-03T03:30:16;8.82;;;6.50;;
62523;SDS011;53689;56.878;60.672;2022-07-03T03:32:43;10.38;;;6.43;;
62523;SDS011;53689;56.878;60.672;2022-07-03T03:35:12;8.80;;;6.10;;
62523;SDS011;53689;56.878;60.672;2022-07-03T03:37:39;10.55;;;6.70;;
62523;SDS011;53689;56.878;60.672;2022-07-03T03:40:07;12.27;;;7.00;;
62523;SDS011;53689;56.878;60.672;2022-07-03T03:42:36;9.98;;;6.40;;
62523;SDS011;53689;56.878;60.672;2022-07-03T03:45:03;8.82;;;6.38;;
62523;SDS011;53689;56.878;60.672;2022-07-03T03:47:33;12.68;;;7.13;;
62523;SDS011;53689;56.878;60.672;2022-07-03T03:50:01;12.70;;;7.68;;
62523;SDS011;53689;56.878;60.672;2022-07-03T03:52:29;13.93;;;7.35;;
62523;SDS011;53689;56.878;60.672;2022-07-03T03:54:57;11.38;;;7.22;;
62523;SDS011;53689;56.878;60.672;2022-07-03T03:57:24;14.57;;;7.72;;
62523;SDS011;53689;56.878;60.672;2022-07-03T03:59:52;15.27;;;7.80;;
62523;SDS011;53689;56.878;60.672;2022-07-03T04:02:22;12.77;;;7.07;;
62523;SDS011;53689;56.878;60.672;2022-07-03T04:04:51;11.65;;;6.82;;
62523;SDS011;53689;56.878;60.672;2022-07-03T04:07:19;12.88;;;7.72;;
62523;SDS011;53689;56.878;60.672;2022-07-03T04:09:46;13.25;;;7.35;;
62523;SDS011;53689;56.878;60.672;2022-07-03T04:12:13;10.85;;;7.07;;
62523;SDS011;53689;56.878;60.672;2022-07-03T04:14:41;10.63;;;6.65;;
62523;SDS011;53689;56.878;60.672;2022-07-03T04:17:08;9.82;;;6.85;;
62523;SDS011;53689;56.878;60.672;2022-07-03T04:19:36;12.48;;;7.57;;
62523;SDS011;53689;56.878;60.672;2022-07-03T04:22:05;12.63;;;7.47;;
62523;SDS011;53689;56.878;60.672;2022-07-03T04:24:32;9.93;;;6.90;;
62523;SDS011;53689;56.878;60.672;2022-07-03T04:26:59;12.02;;;7.32;;
62523;SDS011;53689;56.878;60.672;2022-07-03T04:29:27;10.05;;;6.90;;
62523;SDS011;53689;56.878;60.672;2022-07-03T04:31:54;10.90;;;7.22;;
62523;SDS011;53689;56.878;60.672;2022-07-03T04:34:22;12.02;;;7.00;;
62523;SDS011;53689;56.878;60.672;2022-07-03T04:36:49;12.13;;;7.22;;
62523;SDS011;53689;56.878;60.672;2022-07-03T04:39:18;10.82;;;7.25;;
62523;SDS011;53689;56.878;60.672;2022-07-03T04:41:45;13.18;;;7.28;;
62523;SDS011;53689;56.878;60.672;2022-07-03T04:44:13;12.90;;;7.28;;
62523;SDS011;53689;56.878;60.672;2022-07-03T04:46:40;11.52;;;7.30;;
62523;SDS011;53689;56.878;60.672;2022-07-03T04:49:08;11.98;;;7.18;;
62523;SDS011;53689;56.878;60.672;2022-07-03T04:51:35;10.57;;;6.95;;
62523;SDS011;53689;56.878;60.672;2022-07-03T04:54:03;14.48;;;7.30;;
62523;SDS011;53689;56.878;60.672;2022-07-03T04:56:31;12.52;;;7.10;;
62523;SDS011;53689;56.878;60.672;2022-07-03T04:58:59;10.90;;;6.70;;
62523;SDS011;53689;56.878;60.672;2022-07-03T05:01:26;12.57;;;7.22;;
62523;SDS011;53689;56.878;60.672;2022-07-03T05:03:54;11.98;;;6.72;;
62523;SDS011;53689;56.878;60.672;2022-07-03T05:06:21;12.23;;;6.97;;
62523;SDS011;53689;56.878;60.672;2022-07-03T05:08:49;9.25;;;6.45;;
62523;SDS011;53689;56.878;60.672;2022-07-03T05:11:16;12.02;;;7.25;;
62523;SDS011;53689;56.878;60.672;2022-07-03T05:13:45;11.85;;;7.53;;
62523;SDS011;53689;56.878;60.672;2022-07-03T05:16:12;12.20;;;7.50;;
62523;SDS011;53689;56.878;60.672;2022-07-03T05:18:40;12.55;;;7.00;;
62523;SDS011;53689;56.878;60.672;2022-07-03T05:21:07;10.40;;;6.82;;
62523;SDS011;53689;56.878;60.672;2022-07-03T05:23:34;11.00;;;6.97;;
62523;SDS011;53689;56.878;60.672;2022-07-03T05:26:02;11.80;;;6.63;;
62523;SDS011;53689;56.878;60.672;2022-07-03T05:28:29;14.38;;;7.45;;
62523;SDS011;53689;56.878;60.672;2022-07-03T05:30:58;9.88;;;7.15;;
62523;SDS011;53689;56.878;60.672;2022-07-03T05:33:26;13.15;;;7.07;;
62523;SDS011;53689;56.878;60.672;2022-07-03T05:35:54;12.63;;;6.88;;
62523;SDS011;53689;56.878;60.672;2022-07-03T05:38:21;11.93;;;7.80;;
62523;SDS011;53689;56.878;60.672;2022-07-03T05:40:49;10.80;;;7.10;;
62523;SDS011;53689;56.878;60.672;2022-07-03T05:43:16;12.25;;;6.85;;
62523;SDS011;53689;56.878;60.672;2022-07-03T05:45:44;10.60;;;6.63;;
62523;SDS011;53689;56.878;60.672;2022-07-03T05:48:13;11.38;;;6.45;;
62523;SDS011;53689;56.878;60.672;2022-07-03T05:50:40;12.47;;;6.73;;
62523;SDS011;53689;56.878;60.672;2022-07-03T05:53:08;12.48;;;7.10;;
62523;SDS011;53689;56.878;60.672;2022-07-03T05:55:35;12.05;;;6.88;;
62523;SDS011;53689;56.878;60.672;2022-07-03T05:58:02;17.13;;;7.47;;
62523;SDS011;53689;56.878;60.672;2022-07-03T06:00:30;18.20;;;7.45;;
62523;SDS011;53689;56.878;60.672;2022-07-03T06:02:57;12.32;;;7.20;;
62523;SDS011;53689;56.878;60.672;2022-07-03T06:05:26;13.75;;;6.78;;
62523;SDS011;53689;56.878;60.672;2022-07-03T06:07:54;13.70;;;7.23;;
62523;SDS011;53689;56.878;60.672;2022-07-03T06:10:21;10.88;;;6.53;;
62523;SDS011;53689;56.878;60.672;2022-07-03T06:12:48;12.30;;;6.93;;
62523;SDS011;53689;56.878;60.672;2022-07-03T06:15:16;14.23;;;7.03;;
62523;SDS011;53689;56.878;60.672;2022-07-03T06:17:43;12.07;;;7.15;;
62523;SDS011;53689;56.878;60.672;2022-07-03T06:20:11;10.52;;;6.47;;
62523;SDS011;53689;56.878;60.672;2022-07-03T06:22:41;10.20;;;6.70;;
62523;SDS011;53689;56.878;60.672;2022-07-03T06:25:08;13.70;;;6.70;;
62523;SDS011;53689;56.878;60.672;2022-07-03T06:27:36;9.90;;;6.72;;
62523;SDS011;53689;56.878;60.672;2022-07-03T06:30:04;10.30;;;6.07;;
62523;SDS011;53689;56.878;60.672;2022-07-03T06:32:32;8.13;;;5.60;;
62523;SDS011;53689;56.878;60.672;2022-07-03T06:35:00;9.23;;;6.35;;
62523;SDS011;53689;56.878;60.672;2022-07-03T06:37:27;10.23;;;6.10;;
62523;SDS011;53689;56.878;60.672;2022-07-03T06:39:56;10.77;;;6.10;;
62523;SDS011;53689;56.878;60.672;2022-07-03T06:42:23;10.23;;;6.43;;
62523;SDS011;53689;56.878;60.672;2022-07-03T06:44:51;10.10;;;6.32;;
62523;SDS011;53689;56.878;60.672;2022-07-03T06:47:18;11.75;;;7.10;;
62523;SDS011;53689;56.878;60.672;2022-07-03T06:49:46;10.27;;;6.88;;
62523;SDS011;53689;56.878;60.672;2022-07-03T06:52:13;9.55;;;6.15;;
62523;SDS011;53689;56.878;60.672;2022-07-03T06:54:40;11.35;;;7.30;;
62523;SDS011;53689;56.878;60.672;2022-07-03T06:57:09;12.57;;;6.93;;
62523;SDS011;53689;56.878;60.672;2022-07-03T06:59:37;10.93;;;6.87;;
62523;SDS011;53689;56.878;60.672;2022-07-03T07:02:04;12.55;;;6.93;;
62523;SDS011;53689;56.878;60.672;2022-07-03T07:04:32;11.27;;;6.55;;
62523;SDS011;53689;56.878;60.672;2022-07-03T07:06:59;10.38;;;6.68;;
62523;SDS011;53689;56.878;60.672;2022-07-03T07:09:26;11.20;;;6.85;;
62523;SDS011;53689;56.878;60.672;2022-07-03T07:11:54;10.13;;;6.30;;
62523;SDS011;53689;56.878;60.672;2022-07-03T07:14:23;9.65;;;6.65;;
62523;SDS011;53689;56.878;60.672;2022-07-03T07:16:50;9.50;;;6.70;;
62523;SDS011;53689;56.878;60.672;2022-07-03T07:19:18;12.40;;;6.60;;
62523;SDS011;53689;56.878;60.672;2022-07-03T07:21:45;11.55;;;7.20;;
62523;SDS011;53689;56.878;60.672;2022-07-03T07:24:15;12.05;;;7.00;;
62523;SDS011;53689;56.878;60.672;2022-07-03T07:26:43;12.02;;;6.57;;
62523;SDS011;53689;56.878;60.672;2022-07-03T07:29:10;14.38;;;7.63;;
62523;SDS011;53689;56.878;60.672;2022-07-03T07:31:39;15.10;;;7.60;;
62523;SDS011;53689;56.878;60.672;2022-07-03T07:34:07;14.63;;;7.90;;
62523;SDS011;53689;56.878;60.672;2022-07-03T07:36:34;19.08;;;7.72;;
62523;SDS011;53689;56.878;60.672;2022-07-03T07:39:01;9.93;;;7.18;;
62523;SDS011;53689;56.878;60.672;2022-07-03T07:41:29;11.88;;;7.32;;
62523;SDS011;53689;56.878;60.672;2022-07-03T07:43:56;12.48;;;6.85;;
62523;SDS011;53689;56.878;60.672;2022-07-03T07:46:24;12.93;;;6.93;;
62523;SDS011;53689;56.878;60.672;2022-07-03T07:48:53;12.70;;;6.47;;
62523;SDS011;53689;56.878;60.672;2022-07-03T07:51:20;12.60;;;6.47;;
62523;SDS011;53689;56.878;60.672;2022-07-03T07:53:48;12.35;;;6.30;;
62523;SDS011;53689;56.878;60.672;2022-07-03T07:56:15;11.40;;;6.60;;
62523;SDS011;53689;56.878;60.672;2022-07-03T07:58:43;10.77;;;5.65;;
62523;SDS011;53689;56.878;60.672;2022-07-03T08:01:10;10.80;;;6.50;;
62523;SDS011;53689;56.878;60.672;2022-07-03T08:03:37;9.68;;;5.88;;
62523;SDS011;53689;56.878;60.672;2022-07-03T08:06:06;13.23;;;6.00;;
62523;SDS011;53689;56.878;60.672;2022-07-03T08:08:34;12.07;;;6.40;;
62523;SDS011;53689;56.878;60.672;2022-07-03T08:11:01;11.77;;;6.70;;
62523;SDS011;53689;56.878;60.672;2022-07-03T08:13:28;8.98;;;6.47;;
62523;SDS011;53689;56.878;60.672;2022-07-03T08:15:56;10.50;;;6.20;;
62523;SDS011;53689;56.878;60.672;2022-07-03T08:18:23;9.02;;;6.10;;
62523;SDS011;53689;56.878;60.672;2022-07-03T08:20:51;9.30;;;5.85;;
62523;SDS011;53689;56.878;60.672;2022-07-03T08:23:20;11.07;;;5.93;;
62523;SDS011;53689;56.878;60.672;2022-07-03T08:25:47;10.33;;;5.20;;
62523;SDS011;53689;56.878;60.672;2022-07-03T08:28:15;9.50;;;6.03;;
62523;SDS011;53689;56.878;60.672;2022-07-03T08:30:42;9.77;;;5.55;;
62523;SDS011;53689;56.878;60.672;2022-07-03T08:33:09;9.27;;;5.88;;
62523;SDS011;53689;56.878;60.672;2022-07-03T08:35:37;8.95;;;5.05;;
62523;SDS011;53689;56.878;60.672;2022-07-03T08:38:04;9.68;;;5.40;;
62523;SDS011;53689;56.878;60.672;2022-07-03T08:40:33;8.05;;;5.32;;
62523;SDS011;53689;56.878;60.672;2022-07-03T08:45:29;6.90;;;4.88;;
62523;SDS011;53689;56.878;60.672;2022-07-03T08:47:58;8.07;;;5.28;;
62523;SDS011;53689;56.878;60.672;2022-07-03T08:50:26;6.97;;;5.10;;
62523;SDS011;53689;56.878;60.672;2022-07-03T08:52:53;7.20;;;5.45;;
62523;SDS011;53689;56.878;60.672;2022-07-03T08:55:20;8.35;;;4.72;;
62523;SDS011;53689;56.878;60.672;2022-07-03T08:57:49;8.50;;;4.88;;
62523;SDS011;53689;56.878;60.672;2022-07-03T09:00:17;6.97;;;5.22;;
62523;SDS011;53689;56.878;60.672;2022-07-03T09:02:46;7.93;;;4.72;;
62523;SDS011;53689;56.878;60.672;2022-07-03T09:05:15;7.97;;;5.15;;
62523;SDS011;53689;56.878;60.672;2022-07-03T09:07:45;6.97;;;4.68;;
62523;SDS011;53689;56.878;60.672;2022-07-03T09:10:13;7.03;;;5.00;;
62523;SDS011;53689;56.878;60.672;2022-07-03T09:12:43;6.90;;;5.18;;
62523;SDS011;53689;56.878;60.672;2022-07-03T09:15:13;6.82;;;5.13;;
62523;SDS011;53689;56.878;60.672;2022-07-03T09:17:53;6.47;;;5.30;;
62523;SDS011;53689;56.878;60.672;2022-07-03T09:20:26;8.23;;;4.85;;
62523;SDS011;53689;56.878;60.672;2022-07-03T09:22:56;7.18;;;5.32;;
62523;SDS011;53689;56.878;60.672;2022-07-03T09:25:39;7.03;;;5.05;;
62523;SDS011;53689;56.878;60.672;2022-07-03T09:28:18;8.00;;;4.93;;
62523;SDS011;53689;56.878;60.672;2022-07-03T09:30:57;6.82;;;4.57;;
62523;SDS011;53689;56.878;60.672;2022-07-03T09:33:26;8.60;;;5.45;;
62523;SDS011;53689;56.878;60.672;2022-07-03T09:35:53;9.80;;;5.40;;
62523;SDS011;53689;56.878;60.672;2022-07-03T09:38:21;8.68;;;5.45;;
62523;SDS011;53689;56.878;60.672;2022-07-03T09:40:50;10.00;;;5.70;;
62523;SDS011;53689;56.878;60.672;2022-07-03T09:43:22;9.80;;;6.00;;
62523;SDS011;53689;56.878;60.672;2022-07-03T09:45:51;9.98;;;6.22;;
62523;SDS011;53689;56.878;60.672;2022-07-03T09:48:22;10.55;;;6.40;;
62523;SDS011;53689;56.878;60.672;2022-07-03T09:51:10;10.60;;;6.55;;
62523;SDS011;53689;56.878;60.672;2022-07-03T09:56:33;13.50;;;6.28;;
62523;SDS011;53689;56.878;60.672;2022-07-03T09:59:06;10.35;;;6.10;;
62523;SDS011;53689;56.878;60.672;2022-07-03T10:01:36;11.35;;;6.20;;
62523;SDS011;53689;56.878;60.672;2022-07-03T10:04:10;10.68;;;5.72;;
62523;SDS011;53689;56.878;60.672;2022-07-03T10:09:22;8.40;;;5.38;;
62523;SDS011;53689;56.878;60.672;2022-07-03T10:11:51;9.02;;;5.60;;
62523;SDS011;53689;56.878;60.672;2022-07-03T10:14:20;10.25;;;5.70;;
62523;SDS011;53689;56.878;60.672;2022-07-03T10:16:49;8.85;;;5.50;;
62523;SDS011;53689;56.878;60.672;2022-07-03T10:19:19;8.80;;;5.20;;
62523;SDS011;53689;56.878;60.672;2022-07-03T10:21:49;7.30;;;4.70;;
62523;SDS011;53689;56.878;60.672;2022-07-03T10:24:19;8.10;;;5.00;;
62523;SDS011;53689;56.878;60.672;2022-07-03T10:26:49;8.23;;;5.22;;
62523;SDS011;53689;56.878;60.672;2022-07-03T10:29:17;7.90;;;5.25;;
62523;SDS011;53689;56.878;60.672;2022-07-03T10:31:54;7.05;;;5.13;;
62523;SDS011;53689;56.878;60.672;2022-07-03T10:34:23;6.55;;;4.90;;
62523;SDS011;53689;56.878;60.672;2022-07-03T10:36:53;8.65;;;5.00;;
62523;SDS011;53689;56.878;60.672;2022-07-03T10:39:30;9.90;;;5.25;;
62523;SDS011;53689;56.878;60.672;2022-07-03T10:42:03;6.80;;;5.38;;
62523;SDS011;53689;56.878;60.672;2022-07-03T10:44:32;8.30;;;5.05;;
62523;SDS011;53689;56.878;60.672;2022-07-03T10:46:59;7.13;;;4.93;;
62523;SDS011;53689;56.878;60.672;2022-07-03T10:49:34;6.60;;;4.40;;
62523;SDS011;53689;56.878;60.672;2022-07-03T10:52:03;10.60;;;6.13;;
62523;SDS011;53689;56.878;60.672;2022-07-03T10:54:32;11.10;;;7.03;;
62523;SDS011;53689;56.878;60.672;2022-07-03T10:57:14;10.05;;;5.85;;
62523;SDS011;53689;56.878;60.672;2022-07-03T11:02:32;9.18;;;5.80;;
62523;SDS011;53689;56.878;60.672;2022-07-03T11:05:21;14.07;;;7.30;;
62523;SDS011;53689;56.878;60.672;2022-07-03T11:08:06;10.10;;;6.80;;
62523;SDS011;53689;56.878;60.672;2022-07-03T11:10:35;13.50;;;7.30;;
62523;SDS011;53689;56.878;60.672;2022-07-03T11:13:04;12.50;;;6.60;;
62523;SDS011;53689;56.878;60.672;2022-07-03T11:15:33;10.90;;;6.97;;
62523;SDS011;53689;56.878;60.672;2022-07-03T11:18:07;15.85;;;7.35;;
62523;SDS011;53689;56.878;60.672;2022-07-03T11:20:46;14.50;;;7.05;;
62523;SDS011;53689;56.878;60.672;2022-07-03T11:23:33;16.17;;;7.30;;
62523;SDS011;53689;56.878;60.672;2022-07-03T11:26:19;11.77;;;7.13;;
62523;SDS011;53689;56.878;60.672;2022-07-03T11:28:49;12.13;;;6.65;;
62523;SDS011;53689;56.878;60.672;2022-07-03T11:31:21;12.13;;;7.03;;
62523;SDS011;53689;56.878;60.672;2022-07-03T11:33:51;13.88;;;7.07;;
62523;SDS011;53689;56.878;60.672;2022-07-03T11:36:26;14.23;;;6.82;;
62523;SDS011;53689;56.878;60.672;2022-07-03T11:39:05;12.88;;;7.47;;
62523;SDS011;53689;56.878;60.672;2022-07-03T11:41:44;15.60;;;8.27;;
62523;SDS011;53689;56.878;60.672;2022-07-03T11:44:17;13.05;;;7.72;;
62523;SDS011;53689;56.878;60.672;2022-07-03T11:46:47;17.30;;;8.45;;
62523;SDS011;53689;56.878;60.672;2022-07-03T11:49:16;16.00;;;8.20;;
62523;SDS011;53689;56.878;60.672;2022-07-03T11:51:55;14.18;;;7.60;;
62523;SDS011;53689;56.878;60.672;2022-07-03T11:54:26;14.23;;;7.47;;
62523;SDS011;53689;56.878;60.672;2022-07-03T11:56:57;12.80;;;8.35;;
62523;SDS011;53689;56.878;60.672;2022-07-03T11:59:24;12.02;;;7.63;;
62523;SDS011;53689;56.878;60.672;2022-07-03T12:01:52;14.73;;;8.07;;
62523;SDS011;53689;56.878;60.672;2022-07-03T12:04:28;16.85;;;8.82;;
62523;SDS011;53689;56.878;60.672;2022-07-03T12:06:58;16.52;;;8.93;;
62523;SDS011;53689;56.878;60.672;2022-07-03T12:09:27;14.25;;;8.43;;
62523;SDS011;53689;56.878;60.672;2022-07-03T12:11:56;18.13;;;8.73;;
62523;SDS011;53689;56.878;60.672;2022-07-03T12:14:38;16.60;;;9.18;;
62523;SDS011;53689;56.878;60.672;2022-07-03T12:17:08;15.02;;;8.55;;
62523;SDS011;53689;56.878;60.672;2022-07-03T12:19:37;15.57;;;7.65;;
62523;SDS011;53689;56.878;60.672;2022-07-03T12:22:12;12.90;;;7.18;;
62523;SDS011;53689;56.878;60.672;2022-07-03T12:24:54;10.95;;;6.72;;
62523;SDS011;53689;56.878;60.672;2022-07-03T12:27:23;14.18;;;8.23;;
62523;SDS011;53689;56.878;60.672;2022-07-03T12:29:51;13.00;;;7.90;;
62523;SDS011;53689;56.878;60.672;2022-07-03T12:32:19;12.57;;;7.10;;
62523;SDS011;53689;56.878;60.672;2022-07-03T12:34:47;11.73;;;6.40;;
62523;SDS011;53689;56.878;60.672;2022-07-03T12:37:16;10.50;;;6.70;;
62523;SDS011;53689;56.878;60.672;2022-07-03T12:39:57;13.15;;;7.68;;
62523;SDS011;53689;56.878;60.672;2022-07-03T12:42:24;14.93;;;6.85;;
62523;SDS011;53689;56.878;60.672;2022-07-03T12:44:55;10.27;;;6.57;;
62523;SDS011;53689;56.878;60.672;2022-07-03T12:47:24;12.02;;;6.43;;
62523;SDS011;53689;56.878;60.672;2022-07-03T12:49:55;11.10;;;5.70;;
62523;SDS011;53689;56.878;60.672;2022-07-03T12:52:25;10.13;;;6.03;;
62523;SDS011;53689;56.878;60.672;2022-07-03T12:54:52;10.70;;;6.43;;
62523;SDS011;53689;56.878;60.672;2022-07-03T12:57:19;11.82;;;6.50;;
62523;SDS011;53689;56.878;60.672;2022-07-03T13:00:00;11.82;;;6.40;;
62523;SDS011;53689;56.878;60.672;2022-07-03T13:02:29;10.32;;;6.25;;
62523;SDS011;53689;56.878;60.672;2022-07-03T13:04:57;10.45;;;6.70;;
62523;SDS011;53689;56.878;60.672;2022-07-03T13:07:29;12.43;;;6.30;;
62523;SDS011;53689;56.878;60.672;2022-07-03T13:09:59;10.20;;;6.05;;
62523;SDS011;53689;56.878;60.672;2022-07-03T13:12:27;10.35;;;6.18;;
62523;SDS011;53689;56.878;60.672;2022-07-03T13:14:55;12.35;;;6.82;;
62523;SDS011;53689;56.878;60.672;2022-07-03T13:17:24;12.95;;;7.00;;
62523;SDS011;53689;56.878;60.672;2022-07-03T13:20:10;14.02;;;6.75;;
62523;SDS011;53689;56.878;60.672;2022-07-03T13:22:39;11.07;;;6.30;;
62523;SDS011;53689;56.878;60.672;2022-07-03T13:25:07;11.15;;;6.30;;
62523;SDS011;53689;56.878;60.672;2022-07-03T13:27:35;13.13;;;6.70;;
62523;SDS011;53689;56.878;60.672;2022-07-03T13:30:02;13.82;;;6.80;;
62523;SDS011;53689;56.878;60.672;2022-07-03T13:32:31;10.07;;;6.40;;
62523;SDS011;53689;56.878;60.672;2022-07-03T13:34:58;12.77;;;6.53;;
62523;SDS011;53689;56.878;60.672;2022-07-03T13:37:26;14.40;;;6.30;;
62523;SDS011;53689;56.878;60.672;2022-07-03T13:39:55;11.88;;;6.95;;
62523;SDS011;53689;56.878;60.672;2022-07-03T13:42:22;11.25;;;6.30;;
62523;SDS011;53689;56.878;60.672;2022-07-03T13:44:50;12.85;;;6.55;;
62523;SDS011;53689;56.878;60.672;2022-07-03T13:47:17;11.98;;;7.20;;
62523;SDS011;53689;56.878;60.672;2022-07-03T13:49:45;11.82;;;6.85;;
62523;SDS011;53689;56.878;60.672;2022-07-03T13:52:13;13.85;;;7.30;;
62523;SDS011;53689;56.878;60.672;2022-07-03T13:54:40;14.02;;;6.65;;
62523;SDS011;53689;56.878;60.672;2022-07-03T13:57:09;11.88;;;6.80;;
62523;SDS011;53689;56.878;60.672;2022-07-03T13:59:37;11.00;;;6.53;;
62523;SDS011;53689;56.878;60.672;2022-07-03T14:02:04;12.40;;;6.45;;
62523;SDS011;53689;56.878;60.672;2022-07-03T14:04:32;14.23;;;6.97;;
62523;SDS011;53689;56.878;60.672;2022-07-03T14:07:00;11.80;;;6.90;;
62523;SDS011;53689;56.878;60.672;2022-07-03T14:09:27;11.75;;;6.82;;
62523;SDS011;53689;56.878;60.672;2022-07-03T14:11:55;11.55;;;6.90;;
62523;SDS011;53689;56.878;60.672;2022-07-03T14:14:24;17.25;;;7.80;;
62523;SDS011;53689;56.878;60.672;2022-07-03T14:16:51;12.17;;;7.53;;
62523;SDS011;53689;56.878;60.672;2022-07-03T14:19:19;13.52;;;7.10;;
62523;SDS011;53689;56.878;60.672;2022-07-03T14:21:49;13.18;;;7.18;;
62523;SDS011;53689;56.878;60.672;2022-07-03T14:24:17;12.25;;;7.82;;
62523;SDS011;53689;56.878;60.672;2022-07-03T14:26:44;12.05;;;7.10;;
62523;SDS011;53689;56.878;60.672;2022-07-03T14:29:12;15.85;;;8.02;;
62523;SDS011;53689;56.878;60.672;2022-07-03T14:31:41;27.10;;;9.00;;
62523;SDS011;53689;56.878;60.672;2022-07-03T14:34:08;19.23;;;9.60;;
62523;SDS011;53689;56.878;60.672;2022-07-03T14:36:36;17.52;;;8.00;;
62523;SDS011;53689;56.878;60.672;2022-07-03T14:39:11;16.50;;;8.75;;
62523;SDS011;53689;56.878;60.672;2022-07-03T14:41:38;14.38;;;7.47;;
62523;SDS011;53689;56.878;60.672;2022-07-03T14:44:06;13.00;;;6.88;;
62523;SDS011;53689;56.878;60.672;2022-07-03T14:46:33;12.00;;;6.35;;
62523;SDS011;53689;56.878;60.672;2022-07-03T14:49:02;25.42;;;19.40;;
62523;SDS011;53689;56.878;60.672;2022-07-03T14:51:29;25.00;;;19.57;;
62523;SDS011;53689;56.878;60.672;2022-07-03T14:53:57;16.45;;;12.25;;
62523;SDS011;53689;56.878;60.672;2022-07-03T14:56:25;13.85;;;9.88;;